createdAt,value
2017-12-19T00:04:46.660Z,-0.03
2017-12-19T00:20:46.069Z,-0.06
2017-12-19T00:25:46.897Z,-0.16
2017-12-19T00:30:47.700Z,-0.07
2017-12-19T00:35:48.530Z,-0.08
2017-12-19T00:40:49.390Z,-0.08
2017-12-19T00:45:52.206Z,-0.10
2017-12-19T00:50:53.021Z,-0.08
2017-12-19T00:55:53.840Z,-0.15
2017-12-19T01:00:54.645Z,-0.08
2017-12-19T01:05:55.436Z,-0.02
2017-12-19T01:10:56.273Z,-0.04
2017-12-19T01:15:57.121Z,-0.06
2017-12-19T01:20:57.941Z,-0.02
2017-12-19T01:25:58.783Z,0.05
2017-12-19T01:30:59.587Z,-0.01
2017-12-19T01:36:00.424Z,0.03
2017-12-19T01:41:01.234Z,0.03
2017-12-19T01:46:02.017Z,0.12
2017-12-19T01:51:02.869Z,0.03
2017-12-19T01:56:03.678Z,0.10
2017-12-19T02:01:04.534Z,0.14
2017-12-19T02:06:05.345Z,0.06
2017-12-19T02:11:06.193Z,-0.05
2017-12-19T02:16:07.053Z,0.08
2017-12-19T02:21:07.888Z,0.13
2017-12-19T02:26:08.757Z,0.09
2017-12-19T02:31:09.586Z,0.02
2017-12-19T02:36:10.444Z,0.00
2017-12-19T02:41:11.257Z,0.00
2017-12-19T02:46:12.073Z,-0.03
2017-12-19T02:51:12.882Z,-0.09
2017-12-19T02:56:13.693Z,-0.12
2017-12-19T03:01:14.503Z,-0.09
2017-12-19T03:06:15.332Z,-0.07
2017-12-19T03:11:16.160Z,-0.03
2017-12-19T03:16:16.970Z,-0.02
2017-12-19T03:21:17.789Z,-0.06
2017-12-19T03:26:18.575Z,-0.10
2017-12-19T03:31:19.395Z,-0.11
2017-12-19T03:36:20.213Z,-0.07
2017-12-19T03:41:21.042Z,-0.11
2017-12-19T03:46:21.882Z,-0.14
2017-12-19T03:51:22.714Z,-0.09
2017-12-19T03:56:23.574Z,-0.14
2017-12-19T04:01:24.389Z,-0.14
2017-12-19T04:06:25.210Z,-0.09
2017-12-19T04:11:26.066Z,-0.17
2017-12-19T04:16:26.883Z,-0.26
2017-12-19T04:21:27.725Z,-0.24
2017-12-19T04:26:28.585Z,-0.27
2017-12-19T04:31:29.389Z,-0.20
2017-12-19T04:36:30.216Z,-0.23
2017-12-19T04:41:31.098Z,-0.27
2017-12-19T04:46:31.915Z,-0.27
2017-12-19T04:51:32.710Z,-0.20
2017-12-19T04:56:33.537Z,-0.28
2017-12-19T05:01:34.326Z,-0.26
2017-12-19T05:06:41.307Z,-0.22
2017-12-19T05:11:42.138Z,-0.23
2017-12-19T05:16:42.954Z,-0.14
2017-12-19T05:21:43.771Z,-0.12
2017-12-19T05:26:44.558Z,-0.18
2017-12-19T05:31:45.418Z,-0.13
2017-12-19T05:36:46.249Z,-0.17
2017-12-19T05:41:47.644Z,-0.16
2017-12-19T05:46:48.447Z,-0.23
2017-12-19T05:51:49.265Z,-0.17
2017-12-19T05:56:50.065Z,-0.12
2017-12-19T06:01:50.853Z,-0.14
2017-12-19T06:06:51.657Z,-0.13
2017-12-19T06:11:52.493Z,-0.14
2017-12-19T06:16:53.291Z,-0.25
2017-12-19T06:21:54.097Z,-0.33
2017-12-19T06:26:54.907Z,-0.21
2017-12-19T06:31:55.703Z,-0.27
2017-12-19T06:36:56.651Z,-0.36
2017-12-19T06:41:57.453Z,-0.30
2017-12-19T06:46:58.331Z,-0.27
2017-12-19T06:51:59.136Z,-0.32
2017-12-19T06:56:59.962Z,-0.21
2017-12-19T07:02:00.774Z,-0.23
2017-12-19T07:07:08.611Z,-0.25
2017-12-19T07:12:09.461Z,-0.24
2017-12-19T07:17:13.702Z,-0.31
2017-12-19T07:22:14.733Z,-0.24
2017-12-19T07:27:15.594Z,-0.12
2017-12-19T07:32:16.434Z,-0.06
2017-12-19T07:37:17.236Z,0.01
2017-12-19T07:42:21.105Z,0.04
2017-12-19T07:47:21.992Z,0.16
2017-12-19T07:52:22.801Z,0.09
2017-12-19T07:57:23.609Z,0.19
2017-12-19T08:02:24.541Z,0.26
2017-12-19T08:07:25.336Z,0.17
2017-12-19T08:12:26.175Z,0.19
2017-12-19T08:17:26.969Z,0.24
2017-12-19T08:22:27.785Z,0.34
2017-12-19T08:27:28.629Z,0.21
2017-12-19T08:32:29.449Z,0.17
2017-12-19T08:37:30.330Z,0.36
2017-12-19T08:42:31.159Z,0.40
2017-12-19T08:47:31.992Z,0.58
2017-12-19T08:52:32.820Z,0.66
2017-12-19T08:57:33.614Z,0.64
2017-12-19T09:02:34.467Z,0.64
2017-12-19T09:07:35.326Z,0.68
2017-12-19T09:12:36.181Z,0.77
2017-12-19T09:17:37.052Z,0.95
2017-12-19T09:22:37.906Z,0.79
2017-12-19T09:27:38.744Z,0.88
2017-12-19T09:32:39.587Z,0.95
2017-12-19T09:37:40.404Z,0.96
2017-12-19T09:42:41.252Z,1.12
2017-12-19T09:47:42.077Z,1.07
2017-12-19T09:52:42.925Z,1.31
2017-12-19T09:57:43.737Z,1.30
2017-12-19T10:02:44.535Z,1.30
2017-12-19T10:07:45.385Z,1.39
2017-12-19T10:12:46.216Z,1.66
2017-12-19T10:17:47.067Z,1.55
2017-12-19T10:22:47.902Z,1.28
2017-12-19T10:27:48.797Z,1.15
2017-12-19T10:32:49.665Z,1.23
2017-12-19T10:37:50.517Z,1.93
2017-12-19T10:42:51.330Z,2.10
2017-12-19T10:47:52.129Z,2.02
2017-12-19T10:52:52.945Z,1.89
2017-12-19T10:57:53.747Z,2.24
2017-12-19T11:02:54.548Z,2.38
2017-12-19T11:07:55.383Z,2.41
2017-12-19T11:12:56.161Z,2.64
2017-12-19T11:17:56.954Z,2.57
2017-12-19T11:22:57.821Z,2.15
2017-12-19T11:27:58.689Z,2.22
2017-12-19T11:32:59.610Z,2.44
2017-12-19T11:38:04.114Z,2.30
2017-12-19T11:43:04.946Z,2.84
2017-12-19T11:48:05.763Z,2.76
2017-12-19T11:53:06.569Z,2.69
2017-12-19T11:58:07.377Z,2.72
2017-12-19T12:03:08.205Z,2.37
2017-12-19T12:08:09.056Z,2.51
2017-12-19T12:13:09.874Z,2.28
2017-12-19T12:18:10.714Z,2.45
2017-12-19T12:23:11.565Z,2.45
2017-12-19T12:28:12.377Z,2.41
2017-12-19T12:33:13.239Z,2.44
2017-12-19T12:38:14.048Z,2.26
2017-12-19T12:43:14.947Z,2.06
2017-12-19T12:48:15.701Z,2.07
2017-12-19T12:53:16.526Z,2.06
2017-12-19T12:58:17.320Z,1.89
2017-12-19T13:03:18.142Z,2.00
2017-12-19T13:08:18.946Z,1.95
2017-12-19T13:13:19.741Z,2.05
2017-12-19T13:18:20.815Z,1.99
2017-12-19T13:23:22.597Z,2.05
2017-12-19T13:28:23.661Z,2.24
2017-12-19T13:33:24.488Z,2.08
2017-12-19T13:38:25.314Z,2.10
2017-12-19T13:43:26.153Z,2.21
2017-12-19T13:48:27.081Z,1.98
2017-12-19T13:53:27.902Z,1.92
2017-12-19T13:58:28.791Z,1.84
2017-12-19T14:03:29.609Z,2.02
2017-12-19T14:08:30.465Z,2.01
2017-12-19T14:13:32.303Z,2.00
2017-12-19T14:18:33.118Z,1.97
2017-12-19T14:28:41.558Z,1.85
2017-12-19T14:33:42.382Z,1.81
2017-12-19T14:38:43.333Z,1.85
2017-12-19T14:43:44.127Z,1.72
2017-12-19T14:48:45.287Z,1.67
2017-12-19T14:53:46.721Z,1.63
2017-12-19T14:58:47.705Z,1.64
2017-12-19T15:03:48.577Z,1.48
2017-12-19T15:08:49.369Z,1.50
2017-12-19T15:13:50.183Z,1.47
2017-12-19T15:18:50.979Z,1.37
2017-12-19T15:23:51.769Z,1.37
2017-12-19T15:28:52.594Z,1.46
2017-12-19T15:33:53.402Z,1.45
2017-12-19T15:38:54.210Z,1.46
2017-12-19T15:43:55.021Z,1.39
2017-12-19T15:48:55.846Z,1.36
2017-12-19T15:53:56.665Z,1.35
2017-12-19T15:58:58.501Z,1.39
2017-12-19T16:03:59.316Z,1.39
2017-12-19T16:09:00.141Z,1.41
2017-12-19T16:14:00.974Z,1.40
2017-12-19T16:19:01.813Z,1.48
2017-12-19T16:24:02.629Z,1.53
2017-12-19T16:29:07.437Z,1.53
2017-12-19T16:34:08.233Z,1.46
2017-12-19T16:39:09.058Z,1.53
2017-12-19T16:44:09.888Z,1.65
2017-12-19T16:49:10.733Z,1.87
2017-12-19T16:54:11.545Z,1.91
2017-12-19T16:59:12.362Z,2.05
2017-12-19T17:04:13.162Z,2.03
2017-12-19T17:09:14.000Z,2.03
2017-12-19T17:14:14.863Z,2.05
2017-12-19T17:19:19.263Z,2.11
2017-12-19T17:24:20.161Z,2.00
2017-12-19T17:29:20.998Z,2.05
2017-12-19T17:34:21.811Z,2.04
2017-12-19T17:39:22.710Z,2.07
2017-12-19T17:44:23.529Z,2.01
2017-12-19T17:49:28.140Z,1.92
2017-12-19T17:54:28.944Z,1.91
2017-12-19T17:59:29.786Z,1.94
2017-12-19T18:04:30.610Z,1.98
2017-12-19T18:09:31.787Z,1.99
2017-12-19T18:14:32.632Z,2.00
2017-12-19T18:19:33.643Z,1.88
2017-12-19T18:24:38.374Z,1.81
2017-12-19T18:29:39.232Z,1.87
2017-12-19T18:34:40.057Z,1.91
2017-12-19T18:39:40.890Z,1.87
2017-12-19T18:44:41.717Z,1.72
2017-12-19T18:49:42.599Z,1.73
2017-12-19T18:54:43.471Z,1.77
2017-12-19T18:59:46.313Z,1.69
2017-12-19T19:04:47.109Z,1.77
2017-12-19T19:09:48.737Z,1.85
2017-12-19T19:14:49.597Z,1.85
2017-12-19T19:19:50.433Z,1.83
2017-12-19T19:24:51.284Z,1.87
2017-12-19T19:29:52.133Z,1.87
2017-12-19T19:34:53.006Z,1.90
2017-12-19T19:39:53.813Z,1.90
2017-12-19T19:44:54.665Z,1.90
2017-12-19T19:49:55.529Z,1.95
2017-12-19T19:54:56.374Z,1.92
2017-12-19T19:59:57.221Z,1.97
2017-12-19T20:04:58.009Z,1.81
2017-12-19T20:09:59.894Z,1.63
2017-12-19T20:15:00.806Z,1.47
2017-12-19T20:20:01.644Z,1.42
2017-12-19T20:25:02.497Z,1.36
2017-12-19T20:30:03.455Z,1.33
2017-12-19T20:35:04.266Z,1.38
2017-12-19T20:40:05.116Z,1.39
2017-12-19T20:45:09.684Z,1.36
2017-12-19T20:50:10.581Z,1.39
2017-12-19T20:55:11.424Z,1.37
2017-12-19T21:00:12.332Z,1.48
2017-12-19T21:05:13.085Z,1.55
2017-12-19T21:10:13.899Z,1.52
2017-12-19T21:15:14.726Z,1.56
2017-12-19T21:20:15.568Z,1.60
2017-12-19T21:25:16.398Z,1.65
2017-12-19T21:30:17.279Z,1.71
2017-12-19T21:35:18.106Z,1.68
2017-12-19T21:40:18.962Z,1.75
2017-12-19T21:45:19.822Z,1.72
2017-12-19T21:50:20.672Z,1.70
2017-12-19T21:55:21.519Z,1.74
2017-12-19T22:00:22.342Z,1.75
2017-12-19T22:05:23.190Z,1.82
2017-12-19T22:10:26.013Z,1.79
2017-12-19T22:15:26.870Z,1.79
2017-12-19T22:20:30.957Z,1.89
2017-12-19T22:25:31.832Z,1.90
2017-12-19T22:30:32.654Z,1.82
2017-12-19T22:35:33.590Z,1.75
2017-12-19T22:40:34.675Z,1.78
2017-12-19T22:45:35.481Z,1.78
2017-12-19T22:50:36.343Z,1.88
2017-12-19T22:55:37.258Z,1.90
2017-12-19T23:00:41.984Z,1.84
2017-12-19T23:05:42.875Z,1.86
2017-12-19T23:10:43.795Z,1.86
2017-12-19T23:15:44.697Z,1.86
2017-12-19T23:20:45.536Z,1.92
2017-12-19T23:25:46.382Z,1.85
2017-12-19T23:30:47.214Z,1.94
2017-12-19T23:35:54.149Z,1.86
2017-12-19T23:40:54.965Z,1.91
2017-12-19T23:45:55.798Z,1.84
2017-12-19T23:51:03.541Z,1.81
2017-12-19T23:56:04.415Z,1.87
